Pittsfield, NH

1:16 PM EDT on September 21, 2014 (GMT -0400)
KNHCHICH2 | Change Station
CLOSE
Current Station
Personal Weather Station
Location: Chichester, NH
Elevation: 689 ft
Nearby Weather Stations

Elev 689 ft 43.21 °N, 71.41 °W | Updated 10 minutes ago

Overcast
Overcast
68.2 °F
Feels Like 68.2 °F
N
0.0
Wind Variable Wind from ESE
Gusts 1.0 mph

Today
High -- | Low -- °F
--% Chance of Precip.
Yesterday
High -- | Low -- °F
Precip. -- in
6:31 AM 6:44 PM
Waning Crescent, 6% visible
Pressure 29.81 in
Visibility 9.0 miles
Clouds Scattered Clouds 1000 ft
Mostly Cloudy 2000 ft
Overcast 3400 ft
Dew Point 68 °F
Humidity 98%
Rainfall 0.03 in
Snow Depth Not available.
UV 2 out of 12
Pollen .30 out of 12
Ozone Good
Flu Activity Not available.
SPECI KCON 211706Z AUTO 17007KT 9SM -RA SCT010 BKN020 OVC034 22/19 A2981 RMK AO2 RAB03 P0000 T02170194

More Conditions Fewer Conditions

Pressure 29.81 in
Visibility 9.0 miles
Clouds Scattered Clouds 1000 ft
Mostly Cloudy 2000 ft
Overcast 3400 ft
Dew Point 68 °F
Humidity 98%
Rainfall 0.03 in
Snow Depth Not available.
UV 2 out of 12
Pollen .30 out of 12
Ozone Good
Flu Activity Not available.
SPECI KCON 211706Z AUTO 17007KT 9SM -RA SCT010 BKN020 OVC034 22/19 A2981 RMK AO2 RAB03 P0000 T02170194

More Conditions Fewer Conditions

10-Day Weather Forecast

Almanac

Astronomy

Sep. 21, 2014 Rise Set
Actual Time 6:31 AM EDT 6:44 PM EDT
Civil Twilight 6:02 AM EDT 7:12 PM EDT
Nautical Twilight 5:29 AM EDT 7:46 PM EDT
Astronomical Twilight 4:55 AM EDT 8:20 PM EDT
Moon 3:58 AM EDT 5:21 PM EDT
Length of Visible Light 13h 10m
Length of Day
12h 13m
Tomorrow will be 2m 55s shorter.
Waning Crescent, 6% of the Moon is Illuminated
Today
Waning Crescent
Sep 24
New
Oct 1
First Quarter
Oct 8
Full
Oct 15
Last Quarter

Today's Extremes

State Highs State Lows

Community

WunderPhotos

Upload Photos

1,755,197 photos uploaded!

WunderBlogs® & News

Nearby

Air Quality

  Air Quality AQ Index Pollutant
Yesterday Good
OZONE
Current Good
OZONE
Sunday Good
PM2.5
Sunday Good
OZONE
Monday Good
PM2.5
Monday Good
OZONE

Snow Depth

Station Depth Elevation
No new snow has been reported.

Earthquake Activity

City Distance Mag. Time & Date
No recent earthquake activity has been reported nearby.
Minimum magnitude displayed is 2.5.

Coastal Water Temperatures

Place Temperature
No Stations Reporting

Nearby Weather Stations